BAW283 EGLL-KLAX
Flight info
| Callsign | BAW283 |
|---|---|
| Flight time | N/A |
| Altitude | 36000 |
| Route | ULTIB T420 TNT UL28 RODOL UM65 TENSO L603 BELOX DCT GOMUP/M083F370 DCT 58N015W 58N020W 58N030W 58N040W 58N050W DCT CUDDY/N0484F380 DCT MCKEE DCT CHARN/N0481F400 DCT 5230N09000W DCT OTLUR DCT MOT DCT BOY DCT MLF J107 BLD DCT HAKMN ANJLL4 |
| Aircraft | B772/H-SDE1E3FGHIJ3J5J6M1M2P2RWXYZ/LB1D1 |
Departure
| Time | N/A |
|---|---|
| Airport | London Heathrow Airport (EGLL) |
Arrival
| Time | 2026-04-21 19:18 |
|---|---|
| Airport | Los Angeles International Airport (KLAX) |
| Time | Latitude | Longitude | Altitude | Speed | Heading |
|---|---|---|---|---|---|
| 2026-04-21 18:12 | 38.49750 | -112.89709 | 42049 ft | 431 kts | 214° |
| 2026-04-21 18:12 | 38.47245 | -112.91824 | 42065 ft | 431 kts | 214° |
| 2026-04-21 18:13 | 38.42246 | -112.96040 | 42066 ft | 430 kts | 214° |
| 2026-04-21 18:13 | 38.37315 | -113.00192 | 42062 ft | 430 kts | 213° |
| 2026-04-21 18:14 | 38.29777 | -113.06402 | 42038 ft | 430 kts | 213° |
| 2026-04-21 18:15 | 38.24731 | -113.10492 | 42003 ft | 430 kts | 213° |
| 2026-04-21 18:15 | 38.19689 | -113.14584 | 41972 ft | 430 kts | 213° |
| 2026-04-21 18:16 | 38.14678 | -113.18652 | 41936 ft | 429 kts | 213° |
| 2026-04-21 18:16 | 38.09648 | -113.22731 | 41898 ft | 429 kts | 213° |
| 2026-04-21 18:17 | 38.04617 | -113.26803 | 41906 ft | 429 kts | 213° |
| 2026-04-21 18:17 | 37.99587 | -113.30868 | 41914 ft | 429 kts | 213° |
| 2026-04-21 18:18 | 37.94556 | -113.34928 | 41943 ft | 429 kts | 213° |
| 2026-04-21 18:18 | 37.89520 | -113.38984 | 41954 ft | 429 kts | 213° |
| 2026-04-21 18:19 | 37.84468 | -113.43019 | 41971 ft | 429 kts | 213° |
| 2026-04-21 18:19 | 37.79415 | -113.47037 | 41918 ft | 429 kts | 213° |
| 2026-04-21 18:20 | 37.74361 | -113.51053 | 41931 ft | 429 kts | 213° |
| 2026-04-21 18:20 | 37.69307 | -113.55066 | 41928 ft | 429 kts | 213° |
| 2026-04-21 18:21 | 37.64257 | -113.59070 | 41934 ft | 428 kts | 213° |
| 2026-04-21 18:21 | 37.59209 | -113.63066 | 41934 ft | 428 kts | 213° |
| 2026-04-21 18:22 | 37.54160 | -113.67057 | 41934 ft | 428 kts | 213° |
| 2026-04-21 18:22 | 37.49110 | -113.71041 | 41941 ft | 428 kts | 213° |
| 2026-04-21 18:23 | 37.44054 | -113.75024 | 41962 ft | 429 kts | 213° |
| 2026-04-21 18:23 | 37.39030 | -113.78966 | 41944 ft | 429 kts | 213° |
| 2026-04-21 18:24 | 37.33965 | -113.82952 | 41937 ft | 429 kts | 213° |
| 2026-04-21 18:24 | 37.28902 | -113.86924 | 41917 ft | 429 kts | 213° |
| 2026-04-21 18:25 | 37.23834 | -113.90889 | 41912 ft | 429 kts | 213° |
| 2026-04-21 18:25 | 37.18755 | -113.94856 | 41918 ft | 430 kts | 213° |
| 2026-04-21 18:26 | 37.13669 | -113.98824 | 41907 ft | 430 kts | 213° |
| 2026-04-21 18:26 | 37.08641 | -114.02741 | 41900 ft | 430 kts | 213° |
| 2026-04-21 18:27 | 37.03552 | -114.06699 | 41878 ft | 430 kts | 214° |
| 2026-04-21 18:27 | 36.98474 | -114.10642 | 41905 ft | 430 kts | 214° |
| 2026-04-21 18:28 | 36.93422 | -114.14558 | 41896 ft | 430 kts | 214° |
| 2026-04-21 18:28 | 36.88339 | -114.18494 | 41891 ft | 430 kts | 214° |
| 2026-04-21 18:29 | 36.83255 | -114.22423 | 41892 ft | 429 kts | 214° |
| 2026-04-21 18:29 | 36.78166 | -114.26352 | 41887 ft | 429 kts | 214° |
| 2026-04-21 18:30 | 36.73078 | -114.30262 | 41881 ft | 429 kts | 214° |
| 2026-04-21 18:30 | 36.67984 | -114.34149 | 41886 ft | 429 kts | 214° |
| 2026-04-21 18:31 | 36.63746 | -114.37378 | 41892 ft | 429 kts | 214° |
| 2026-04-21 18:31 | 36.58650 | -114.41260 | 41895 ft | 429 kts | 214° |
| 2026-04-21 18:32 | 36.53560 | -114.45132 | 41884 ft | 429 kts | 214° |
| 2026-04-21 18:32 | 36.48480 | -114.48993 | 41873 ft | 427 kts | 214° |
| 2026-04-21 18:33 | 36.43418 | -114.52846 | 41886 ft | 426 kts | 214° |
| 2026-04-21 18:33 | 36.38372 | -114.56733 | 41874 ft | 427 kts | 214° |
| 2026-04-21 18:34 | 36.33321 | -114.60624 | 41877 ft | 427 kts | 214° |
| 2026-04-21 18:34 | 36.28293 | -114.64486 | 41874 ft | 427 kts | 214° |
| 2026-04-21 18:35 | 36.23235 | -114.68361 | 41863 ft | 427 kts | 215° |
| 2026-04-21 18:35 | 36.18172 | -114.72236 | 41881 ft | 428 kts | 215° |
| 2026-04-21 18:36 | 36.13101 | -114.76111 | 41920 ft | 429 kts | 215° |
| 2026-04-21 18:36 | 36.08019 | -114.79989 | 41937 ft | 429 kts | 215° |
| 2026-04-21 18:37 | 36.02934 | -114.83862 | 41968 ft | 428 kts | 214° |
| 2026-04-21 18:37 | 35.97650 | -114.87295 | 41981 ft | 432 kts | 206° |
| 2026-04-21 18:38 | 35.91987 | -114.89840 | 41971 ft | 434 kts | 204° |
| 2026-04-21 18:38 | 35.86331 | -114.92310 | 41971 ft | 434 kts | 204° |
| 2026-04-21 18:39 | 35.80645 | -114.94817 | 41908 ft | 434 kts | 204° |
| 2026-04-21 18:39 | 35.74968 | -114.97331 | 41913 ft | 433 kts | 204° |
| 2026-04-21 18:40 | 35.69289 | -114.99845 | 41914 ft | 433 kts | 204° |
| 2026-04-21 18:40 | 35.64595 | -115.01919 | 41947 ft | 432 kts | 204° |
| 2026-04-21 18:41 | 35.58028 | -115.04816 | 41940 ft | 430 kts | 204° |
| 2026-04-21 18:41 | 35.52421 | -115.07341 | 41910 ft | 426 kts | 209° |
| 2026-04-21 18:41 | 35.49902 | -115.09177 | 41934 ft | 420 kts | 221° |
| 2026-04-21 18:42 | 35.47840 | -115.11663 | 41951 ft | 414 kts | 229° |
| 2026-04-21 18:42 | 35.43942 | -115.16903 | 41933 ft | 417 kts | 229° |
| 2026-04-21 18:43 | 35.39969 | -115.22130 | 41938 ft | 421 kts | 228° |
| 2026-04-21 18:43 | 35.35948 | -115.27372 | 41956 ft | 424 kts | 228° |
| 2026-04-21 18:44 | 35.31891 | -115.32643 | 41955 ft | 425 kts | 228° |
| 2026-04-21 18:44 | 35.27826 | -115.37917 | 41954 ft | 426 kts | 228° |
| 2026-04-21 18:45 | 35.23788 | -115.43151 | 41958 ft | 425 kts | 228° |
| 2026-04-21 18:45 | 35.19730 | -115.48403 | 41961 ft | 424 kts | 228° |
| 2026-04-21 18:46 | 35.15685 | -115.53631 | 41966 ft | 422 kts | 228° |
| 2026-04-21 18:46 | 35.11652 | -115.58831 | 41952 ft | 420 kts | 228° |
| 2026-04-21 18:47 | 35.07621 | -115.63990 | 41961 ft | 419 kts | 228° |
| 2026-04-21 18:47 | 35.03593 | -115.69130 | 41970 ft | 418 kts | 228° |
| 2026-04-21 18:48 | 34.99582 | -115.74248 | 41962 ft | 417 kts | 228° |
| 2026-04-21 18:48 | 34.95567 | -115.79365 | 41968 ft | 417 kts | 228° |
| 2026-04-21 18:49 | 34.91554 | -115.84472 | 41959 ft | 416 kts | 228° |
| 2026-04-21 18:49 | 34.88217 | -115.88713 | 41957 ft | 417 kts | 228° |
| 2026-04-21 18:50 | 34.83554 | -115.94630 | 41955 ft | 417 kts | 228° |
| 2026-04-21 18:50 | 34.79534 | -115.99725 | 41936 ft | 416 kts | 228° |
| 2026-04-21 18:51 | 34.75581 | -116.04733 | 41941 ft | 416 kts | 228° |
| 2026-04-21 18:51 | 34.71591 | -116.09815 | 41947 ft | 414 kts | 228° |
| 2026-04-21 18:51 | 34.69609 | -116.12341 | 41495 ft | 414 kts | 228° |
| 2026-04-21 18:52 | 34.67620 | -116.14874 | 40921 ft | 413 kts | 229° |
| 2026-04-21 18:52 | 34.65638 | -116.17394 | 40268 ft | 412 kts | 229° |
| 2026-04-21 18:52 | 34.63654 | -116.19915 | 39597 ft | 413 kts | 229° |
| 2026-04-21 18:52 | 34.61664 | -116.22441 | 38923 ft | 413 kts | 229° |
| 2026-04-21 18:53 | 34.59677 | -116.24962 | 38257 ft | 412 kts | 229° |
| 2026-04-21 18:53 | 34.57702 | -116.27464 | 37662 ft | 408 kts | 229° |
| 2026-04-21 18:53 | 34.55750 | -116.29936 | 37090 ft | 404 kts | 229° |
| 2026-04-21 18:53 | 34.53814 | -116.32386 | 36538 ft | 399 kts | 229° |
| 2026-04-21 18:54 | 34.51901 | -116.34805 | 36008 ft | 396 kts | 229° |
| 2026-04-21 18:54 | 34.50005 | -116.37203 | 35470 ft | 392 kts | 229° |
| 2026-04-21 18:54 | 34.48123 | -116.39581 | 34937 ft | 389 kts | 229° |
| 2026-04-21 18:54 | 34.46278 | -116.41914 | 34388 ft | 387 kts | 229° |
| 2026-04-21 18:55 | 34.45021 | -116.43499 | 34037 ft | 385 kts | 229° |
| 2026-04-21 18:55 | 34.42579 | -116.46586 | 33263 ft | 381 kts | 230° |
| 2026-04-21 18:55 | 34.41000 | -116.49134 | 32697 ft | 375 kts | 241° |
| 2026-04-21 18:55 | 34.39849 | -116.51959 | 32193 ft | 371 kts | 243° |
| 2026-04-21 18:56 | 34.38737 | -116.54769 | 31672 ft | 369 kts | 243° |
| 2026-04-21 18:56 | 34.37634 | -116.57515 | 31165 ft | 366 kts | 243° |
| 2026-04-21 18:56 | 34.36511 | -116.60272 | 30653 ft | 363 kts | 242° |
| 2026-04-21 18:56 | 34.35388 | -116.63003 | 30159 ft | 361 kts | 242° |
| 2026-04-21 18:57 | 34.34268 | -116.65716 | 29561 ft | 358 kts | 242° |
| 2026-04-21 18:57 | 34.33162 | -116.68397 | 28989 ft | 354 kts | 242° |
| 2026-04-21 18:57 | 34.32082 | -116.71068 | 28424 ft | 351 kts | 242° |
| 2026-04-21 18:57 | 34.31023 | -116.73708 | 27894 ft | 348 kts | 242° |
| 2026-04-21 18:58 | 34.29976 | -116.76322 | 27406 ft | 344 kts | 242° |
| 2026-04-21 18:58 | 34.28935 | -116.78914 | 26868 ft | 341 kts | 242° |
| 2026-04-21 18:58 | 34.27901 | -116.81486 | 26373 ft | 338 kts | 242° |
| 2026-04-21 18:58 | 34.26873 | -116.84036 | 25873 ft | 337 kts | 241° |
| 2026-04-21 18:59 | 34.25850 | -116.86573 | 25374 ft | 335 kts | 241° |
| 2026-04-21 18:59 | 34.24832 | -116.89099 | 24921 ft | 333 kts | 241° |
| 2026-04-21 18:59 | 34.23816 | -116.91612 | 24413 ft | 332 kts | 241° |
| 2026-04-21 18:59 | 34.22805 | -116.94113 | 23918 ft | 330 kts | 241° |
| 2026-04-21 19:00 | 34.22136 | -116.95766 | 23593 ft | 330 kts | 241° |
| 2026-04-21 19:00 | 34.20831 | -116.99120 | 22873 ft | 328 kts | 245° |
| 2026-04-21 19:00 | 34.20100 | -117.01652 | 22415 ft | 328 kts | 248° |
| 2026-04-21 19:00 | 34.19441 | -117.04248 | 21950 ft | 326 kts | 249° |
| 2026-04-21 19:01 | 34.18776 | -117.06862 | 21488 ft | 325 kts | 248° |
| 2026-04-21 19:01 | 34.18094 | -117.09456 | 21009 ft | 324 kts | 248° |
| 2026-04-21 19:01 | 34.17399 | -117.12032 | 20559 ft | 323 kts | 248° |
| 2026-04-21 19:01 | 34.16701 | -117.14612 | 20112 ft | 321 kts | 248° |
| 2026-04-21 19:02 | 34.16005 | -117.17168 | 19662 ft | 318 kts | 247° |
| 2026-04-21 19:02 | 34.15306 | -117.19706 | 19235 ft | 319 kts | 247° |
| 2026-04-21 19:02 | 34.14605 | -117.22246 | 18795 ft | 319 kts | 247° |
| 2026-04-21 19:02 | 34.13907 | -117.24780 | 18305 ft | 318 kts | 247° |
| 2026-04-21 19:03 | 34.13210 | -117.27310 | 17794 ft | 316 kts | 247° |
| 2026-04-21 19:03 | 34.12513 | -117.29841 | 17225 ft | 317 kts | 247° |
| 2026-04-21 19:03 | 34.11821 | -117.32350 | 16761 ft | 314 kts | 247° |
| 2026-04-21 19:03 | 34.11133 | -117.34843 | 16305 ft | 312 kts | 247° |
| 2026-04-21 19:04 | 34.10454 | -117.37307 | 15839 ft | 309 kts | 247° |
| 2026-04-21 19:04 | 34.09821 | -117.39782 | 15404 ft | 307 kts | 248° |
| 2026-04-21 19:04 | 34.09213 | -117.42246 | 14969 ft | 305 kts | 248° |
| 2026-04-21 19:04 | 34.08791 | -117.43955 | 14661 ft | 304 kts | 248° |
| 2026-04-21 19:05 | 34.08338 | -117.45779 | 14347 ft | 302 kts | 248° |
| 2026-04-21 19:05 | 34.07732 | -117.48200 | 13927 ft | 300 kts | 248° |
| 2026-04-21 19:05 | 34.07125 | -117.50612 | 13428 ft | 299 kts | 248° |
| 2026-04-21 19:05 | 34.06517 | -117.53001 | 12968 ft | 297 kts | 248° |
| 2026-04-21 19:06 | 34.05919 | -117.55339 | 12533 ft | 294 kts | 249° |
| 2026-04-21 19:06 | 34.05320 | -117.57680 | 12109 ft | 291 kts | 249° |
| 2026-04-21 19:06 | 34.04721 | -117.60020 | 11686 ft | 289 kts | 249° |
| 2026-04-21 19:06 | 34.04130 | -117.62332 | 11266 ft | 287 kts | 249° |
| 2026-04-21 19:07 | 34.03543 | -117.64621 | 10858 ft | 285 kts | 249° |
| 2026-04-21 19:07 | 34.02960 | -117.66894 | 10485 ft | 283 kts | 250° |
| 2026-04-21 19:07 | 34.02385 | -117.69136 | 10273 ft | 274 kts | 250° |
| 2026-04-21 19:07 | 34.01969 | -117.71339 | 10124 ft | 266 kts | 258° |
| 2026-04-21 19:08 | 34.01772 | -117.73495 | 10006 ft | 257 kts | 260° |
| 2026-04-21 19:08 | 34.01593 | -117.75642 | 9640 ft | 256 kts | 259° |
| 2026-04-21 19:08 | 34.01410 | -117.77765 | 9315 ft | 254 kts | 260° |
| 2026-04-21 19:08 | 34.01219 | -117.79874 | 8987 ft | 253 kts | 260° |
| 2026-04-21 19:09 | 34.01019 | -117.81982 | 8652 ft | 252 kts | 260° |
| 2026-04-21 19:09 | 34.00818 | -117.84073 | 8327 ft | 250 kts | 260° |
| 2026-04-21 19:09 | 34.00616 | -117.86152 | 8005 ft | 249 kts | 260° |
| 2026-04-21 19:09 | 34.00413 | -117.88225 | 7684 ft | 249 kts | 260° |
| 2026-04-21 19:10 | 34.00211 | -117.90291 | 7359 ft | 248 kts | 260° |
| 2026-04-21 19:10 | 34.00008 | -117.92356 | 7004 ft | 247 kts | 261° |
| 2026-04-21 19:10 | 33.99834 | -117.94410 | 6698 ft | 246 kts | 262° |
| 2026-04-21 19:10 | 33.99671 | -117.96447 | 6429 ft | 239 kts | 262° |
| 2026-04-21 19:11 | 33.99491 | -117.98414 | 6169 ft | 235 kts | 261° |
| 2026-04-21 19:11 | 33.99365 | -117.99703 | 5999 ft | 233 kts | 261° |
| 2026-04-21 19:11 | 33.99118 | -118.02159 | 5666 ft | 229 kts | 261° |
| 2026-04-21 19:11 | 33.98984 | -118.03440 | 5502 ft | 228 kts | 261° |
| 2026-04-21 19:12 | 33.98789 | -118.05332 | 5236 ft | 227 kts | 261° |
| 2026-04-21 19:12 | 33.98597 | -118.07204 | 5054 ft | 223 kts | 261° |
| 2026-04-21 19:12 | 33.98409 | -118.09042 | 4887 ft | 219 kts | 261° |
| 2026-04-21 19:12 | 33.98225 | -118.10847 | 4674 ft | 215 kts | 261° |
| 2026-04-21 19:13 | 33.98042 | -118.12626 | 4521 ft | 216 kts | 261° |
| 2026-04-21 19:13 | 33.97856 | -118.14433 | 4270 ft | 213 kts | 261° |
| 2026-04-21 19:13 | 33.97675 | -118.16201 | 4006 ft | 212 kts | 261° |
| 2026-04-21 19:13 | 33.97494 | -118.17963 | 3723 ft | 212 kts | 260° |
| 2026-04-21 19:14 | 33.97317 | -118.19691 | 3441 ft | 206 kts | 260° |
| 2026-04-21 19:14 | 33.97148 | -118.21344 | 3192 ft | 193 kts | 260° |
| 2026-04-21 19:14 | 33.96983 | -118.22939 | 2968 ft | 191 kts | 261° |
| 2026-04-21 19:14 | 33.96824 | -118.24503 | 2677 ft | 182 kts | 259° |
| 2026-04-21 19:15 | 33.96674 | -118.25964 | 2434 ft | 172 kts | 259° |
| 2026-04-21 19:15 | 33.96524 | -118.27408 | 2202 ft | 174 kts | 261° |
| 2026-04-21 19:15 | 33.96377 | -118.28842 | 1978 ft | 172 kts | 261° |
| 2026-04-21 19:15 | 33.96237 | -118.30231 | 1765 ft | 158 kts | 258° |
| 2026-04-21 19:16 | 33.96107 | -118.31493 | 1544 ft | 144 kts | 257° |
| 2026-04-21 19:16 | 33.95990 | -118.32633 | 1383 ft | 135 kts | 257° |
| 2026-04-21 19:16 | 33.95870 | -118.33777 | 1191 ft | 137 kts | 256° |
| 2026-04-21 19:16 | 33.95757 | -118.34885 | 1000 ft | 133 kts | 258° |
| 2026-04-21 19:17 | 33.95526 | -118.37120 | 646 ft | 133 kts | 261° |
| 2026-04-21 19:17 | 33.95416 | -118.38208 | 470 ft | 134 kts | 263° |
| 2026-04-21 19:17 | 33.95301 | -118.39320 | 282 ft | 133 kts | 263° |
| 2026-04-21 19:18 | 33.95188 | -118.40427 | 127 ft | 133 kts | 263° |
| 2026-04-21 19:18 | 33.95085 | -118.41429 | 98 ft | 104 kts | 263° |
| 2026-04-21 19:18 | 33.95015 | -118.42107 | 100 ft | 59 kts | 263° |
| 2026-04-21 19:18 | 33.94972 | -118.42443 | 98 ft | 29 kts | 253° |
| 2026-04-21 19:19 | 33.94900 | -118.42607 | 99 ft | 20 kts | 233° |
| 2026-04-21 19:19 | 33.94861 | -118.42663 | 103 ft | 0 kts | 227° |
| 2026-04-21 19:20 | 33.94857 | -118.42670 | 103 ft | 7 kts | 226° |
| 2026-04-21 19:20 | 33.94797 | -118.42734 | 104 ft | 12 kts | 216° |
| 2026-04-21 19:20 | 33.94719 | -118.42775 | 106 ft | 12 kts | 193° |
| 2026-04-21 19:20 | 33.94644 | -118.42753 | 101 ft | 10 kts | 129° |
| 2026-04-21 19:21 | 33.94639 | -118.42671 | 99 ft | 10 kts | 83° |
| 2026-04-21 19:21 | 33.94648 | -118.42582 | 99 ft | 14 kts | 83° |
| 2026-04-21 19:21 | 33.94663 | -118.42429 | 101 ft | 19 kts | 83° |
| 2026-04-21 19:21 | 33.94680 | -118.42268 | 98 ft | 19 kts | 83° |
| 2026-04-21 19:22 | 33.94696 | -118.42106 | 98 ft | 19 kts | 83° |
| 2026-04-21 19:22 | 33.94713 | -118.41945 | 98 ft | 19 kts | 83° |
| 2026-04-21 19:22 | 33.94721 | -118.41860 | 98 ft | 7 kts | 88° |
| 2026-04-21 19:22 | 33.94685 | -118.41826 | 98 ft | 11 kts | 168° |
| 2026-04-21 19:23 | 33.94596 | -118.41812 | 98 ft | 13 kts | 173° |
| 2026-04-21 19:23 | 33.94507 | -118.41800 | 98 ft | 13 kts | 173° |
| 2026-04-21 19:23 | 33.94416 | -118.41786 | 99 ft | 13 kts | 173° |
| 2026-04-21 19:23 | 33.94326 | -118.41773 | 100 ft | 13 kts | 173° |
| 2026-04-21 19:24 | 33.94235 | -118.41759 | 98 ft | 13 kts | 173° |
| 2026-04-21 19:24 | 33.94136 | -118.41744 | 98 ft | 17 kts | 173° |
| 2026-04-21 19:24 | 33.94007 | -118.41724 | 98 ft | 20 kts | 173° |
| 2026-04-21 19:24 | 33.93884 | -118.41706 | 99 ft | 15 kts | 173° |
| 2026-04-21 19:25 | 33.93810 | -118.41686 | 100 ft | 8 kts | 144° |
| 2026-04-21 19:25 | 33.93797 | -118.41626 | 102 ft | 8 kts | 88° |
| 2026-04-21 19:25 | 33.93805 | -118.41532 | 99 ft | 16 kts | 83° |
| 2026-04-21 19:25 | 33.93820 | -118.41379 | 99 ft | 19 kts | 83° |
| 2026-04-21 19:26 | 33.93837 | -118.41220 | 99 ft | 19 kts | 83° |
| 2026-04-21 19:26 | 33.93853 | -118.41060 | 99 ft | 19 kts | 83° |
| 2026-04-21 19:26 | 33.93869 | -118.40903 | 99 ft | 19 kts | 83° |
| 2026-04-21 19:26 | 33.93886 | -118.40743 | 99 ft | 19 kts | 83° |
| 2026-04-21 19:27 | 33.93903 | -118.40584 | 99 ft | 19 kts | 83° |
| 2026-04-21 19:27 | 33.93918 | -118.40425 | 98 ft | 19 kts | 83° |
| 2026-04-21 19:27 | 33.93934 | -118.40271 | 99 ft | 11 kts | 83° |
| 2026-04-21 19:27 | 33.93941 | -118.40208 | 101 ft | 7 kts | 83° |
| 2026-04-21 19:28 | 33.93947 | -118.40147 | 98 ft | 7 kts | 83° |
| 2026-04-21 19:28 | 33.93953 | -118.40085 | 101 ft | 7 kts | 83° |
| 2026-04-21 19:28 | 33.93963 | -118.39987 | 101 ft | 12 kts | 83° |
| 2026-04-21 19:28 | 33.93972 | -118.39906 | 98 ft | 9 kts | 83° |
| 2026-04-21 19:29 | 33.93981 | -118.39846 | 98 ft | 5 kts | 66° |
| 2026-04-21 19:29 | 33.93990 | -118.39833 | 100 ft | 5 kts | 44° |
| 2026-04-21 19:29 | 33.94013 | -118.39826 | 101 ft | 3 kts | 1° |
| 2026-04-21 19:29 | 33.94031 | -118.39827 | 100 ft | 2 kts | 358° |
| 2026-04-21 19:30 | 33.94041 | -118.39827 | 98 ft | 1 kts | 358° |
| 2026-04-21 19:30 | 33.94066 | -118.39836 | 99 ft | 4 kts | 328° |
| 2026-04-21 19:30 | 33.94086 | -118.39863 | 99 ft | 4 kts | 308° |
| 2026-04-21 19:30 | 33.94099 | -118.39884 | 101 ft | 2 kts | 307° |
| 2026-04-21 19:31 | 33.94105 | -118.39893 | 100 ft | 1 kts | 306° |
| 2026-04-21 19:31 | 33.94106 | -118.39895 | 100 ft | 0 kts | 306° |